Time;durP1;ratioP1;P1;durP2;ratioP2;P2;SDS_P1;SDS_P2;PMS_P1;PMS_P2;Temp;Humidity;BMP_temperature;BMP_pressure;BME280_temperature;BME280_humidity;BME280_pressure;Samples;Min_cycle;Max_cycle;Signal;HPM_P1;HPM_P2
2022/10/09 00:00:32;;;;;;;;;;;16.80;87.90;;;;;;5115330;28;20055;-89
2022/10/09 00:02:58;;;;;;;;;;;16.80;87.90;;;;;;5115325;28;20074;-90
2022/10/09 00:05:25;;;;;;;;;;;16.80;87.90;;;;;;5103552;28;19951;-89
2022/10/09 00:07:51;;;;;;;;;;;16.90;88.00;;;;;;5094765;28;19939;-89
2022/10/09 00:10:17;;;;;;;;;;;16.90;87.90;;;;;;5098981;28;19974;-90
2022/10/09 00:12:43;;;;;;;;;;;16.90;88.00;;;;;;5115094;28;19943;-89
2022/10/09 00:15:09;;;;;;;;;;;16.90;88.10;;;;;;5115060;28;19941;-90
2022/10/09 00:17:35;;;;;;;;;;;16.90;88.10;;;;;;5115076;28;19977;-89
2022/10/09 00:20:00;;;;;;;;;;;16.90;88.10;;;;;;5112665;28;20363;-89
2022/10/09 00:22:26;;;;;;;;;;;16.90;88.10;;;;;;5114915;28;20430;-90
2022/10/09 00:24:52;;;;;;;;;;;16.90;88.00;;;;;;5108988;28;19991;-89
2022/10/09 00:27:17;;;;;;;;;;;16.90;88.00;;;;;;5094028;28;19953;-89
2022/10/09 00:29:43;;;;;;;;;;;16.90;88.00;;;;;;5094416;28;19939;-88
2022/10/09 00:32:08;;;;;;;;;;;16.90;88.00;;;;;;5094342;28;20504;-90
2022/10/09 00:34:34;;;;;;;;;;;17.00;88.10;;;;;;5093796;28;20285;-89
2022/10/09 00:37:00;;;;;;;;;;;17.00;88.20;;;;;;5094199;28;19953;-90
2022/10/09 00:39:25;;;;;;;;;;;17.10;88.30;;;;;;5093975;28;20086;-89
2022/10/09 00:41:51;;;;;;;;;;;17.10;88.40;;;;;;5094166;28;19945;-89
2022/10/09 00:44:35;;;;;;;;;;;17.00;88.70;;;;;;5093410;28;20319;-89
2022/10/09 00:47:00;;;;;;;;;;;17.10;88.90;;;;;;5094047;28;19981;-90
2022/10/09 00:49:27;;;;;;;;;;;17.10;89.10;;;;;;5093989;28;20490;-89
2022/10/09 00:51:54;;;;;;;;;;;17.10;89.30;;;;;;5093800;28;20416;-90
2022/10/09 00:54:21;;;;;;;;;;;17.10;89.50;;;;;;5093972;28;19968;-91
2022/10/09 00:56:47;;;;;;;;;;;17.20;89.60;;;;;;5093747;28;20016;-89
2022/10/09 00:59:13;;;;;;;;;;;17.20;89.60;;;;;;5093724;28;19995;-90
2022/10/09 01:01:39;;;;;;;;;;;17.20;89.70;;;;;;5093807;28;20398;-89
2022/10/09 01:04:05;;;;;;;;;;;17.20;89.70;;;;;;5075165;28;20036;-90
2022/10/09 01:06:39;;;;;;;;;;;17.20;89.70;;;;;;5093697;28;19946;-89
2022/10/09 01:09:07;;;;;;;;;;;17.20;89.70;;;;;;5093688;28;19941;-89
2022/10/09 01:11:38;;;;;;;;;;;17.20;89.60;;;;;;5093747;28;19956;-89
2022/10/09 01:14:04;;;;;;;;;;;17.20;89.50;;;;;;5075681;28;19947;-90
2022/10/09 01:16:32;;;;;;;;;;;17.10;89.40;;;;;;5093612;28;19942;-89
2022/10/09 01:19:00;;;;;;;;;;;17.10;89.00;;;;;;5092158;28;19969;-89
2022/10/09 01:21:36;;;;;;;;;;;17.00;88.90;;;;;;5108272;28;19971;-89
2022/10/09 01:24:07;;;;;;;;;;;17.00;88.90;;;;;;5113812;28;20395;-89
2022/10/09 01:26:51;;;;;;;;;;;17.00;88.80;;;;;;5114059;28;19954;-90
2022/10/09 01:29:18;;;;;;;;;;;16.90;88.40;;;;;;5106216;28;19954;-89
2022/10/09 01:31:45;;;;;;;;;;;17.00;88.80;;;;;;5093386;28;20007;-89
2022/10/09 01:37:15;;;;;;;;;;;17.00;89.50;;;;;;5093288;28;19946;-89
2022/10/09 01:39:41;;;;;;;;;;;17.10;90.00;;;;;;5101483;28;19969;-89
2022/10/09 01:42:07;;;;;;;;;;;17.20;90.10;;;;;;5095391;28;20016;-89
2022/10/09 01:44:33;;;;;;;;;;;17.20;90.40;;;;;;5113595;28;20403;-89
2022/10/09 01:46:59;;;;;;;;;;;17.20;90.70;;;;;;5113541;28;19947;-89
2022/10/09 01:49:27;;;;;;;;;;;17.20;91.00;;;;;;5112188;28;20028;-89
2022/10/09 01:52:05;;;;;;;;;;;17.20;91.20;;;;;;5095082;28;19957;-89
2022/10/09 01:54:37;;;;;;;;;;;17.10;91.40;;;;;;5111704;28;19947;-88
2022/10/09 01:57:05;;;;;;;;;;;17.10;91.60;;;;;;5117790;28;19939;-89
2022/10/09 01:59:32;;;;;;;;;;;17.10;91.60;;;;;;5117621;28;19964;-89
2022/10/09 02:01:58;;;;;;;;;;;17.10;91.60;;;;;;5117640;28;19981;-90
2022/10/09 02:04:25;;;;;;;;;;;17.10;91.50;;;;;;5116328;28;20454;-88
2022/10/09 02:06:50;;;;;;;;;;;17.10;91.30;;;;;;5099264;28;19981;-89
2022/10/09 02:09:16;;;;;;;;;;;17.00;91.00;;;;;;5099260;28;19987;-90
2022/10/09 02:11:44;;;;;;;;;;;16.90;90.80;;;;;;5117469;28;20409;-89
2022/10/09 02:14:10;;;;;;;;;;;16.80;90.50;;;;;;5116126;28;19942;-90
2022/10/09 02:16:39;;;;;;;;;;;16.80;90.40;;;;;;5117394;28;20342;-89
2022/10/09 02:19:04;;;;;;;;;;;16.70;90.10;;;;;;5117254;28;20364;-88
2022/10/09 02:21:33;;;;;;;;;;;16.60;90.10;;;;;;5099052;28;19940;-89
2022/10/09 02:24:00;;;;;;;;;;;16.50;89.90;;;;;;5115483;28;19984;-90
2022/10/09 02:26:26;;;;;;;;;;;16.40;89.90;;;;;;5099938;28;20000;-90
2022/10/09 02:28:51;;;;;;;;;;;16.40;89.90;;;;;;5096726;28;19941;-90
2022/10/09 02:31:23;;;;;;;;;;;16.30;89.60;;;;;;5078495;28;19941;-90
2022/10/09 02:33:55;;;;;;;;;;;16.30;89.00;;;;;;5096629;28;19936;-89
2022/10/09 02:36:21;;;;;;;;;;;16.20;89.50;;;;;;5110906;28;20046;-89
2022/10/09 02:38:46;;;;;;;;;;;16.30;89.90;;;;;;5116696;28;20077;-89
2022/10/09 02:41:12;;;;;;;;;;;16.30;89.90;;;;;;5117198;28;19988;-90
2022/10/09 02:43:37;;;;;;;;;;;16.30;89.80;;;;;;5116827;28;19976;-89
2022/10/09 02:46:03;;;;;;;;;;;16.30;90.00;;;;;;5115553;28;19943;-89
2022/10/09 02:48:28;;;;;;;;;;;16.30;90.10;;;;;;5116802;28;19942;-89
2022/10/09 02:50:54;;;;;;;;;;;16.30;90.20;;;;;;5116511;28;19955;-89
2022/10/09 02:53:20;;;;;;;;;;;16.30;90.20;;;;;;5116894;28;19947;-89
2022/10/09 02:55:45;;;;;;;;;;;16.20;90.00;;;;;;5113997;28;19965;-90
2022/10/09 02:58:11;;;;;;;;;;;16.30;90.00;;;;;;5116062;28;19950;-89
2022/10/09 03:00:37;;;;;;;;;;;16.20;90.00;;;;;;5116439;28;20017;-89
2022/10/09 03:03:02;;;;;;;;;;;16.20;89.70;;;;;;5116492;28;20419;-90
2022/10/09 03:05:28;;;;;;;;;;;16.20;89.80;;;;;;5116487;28;19938;-89
2022/10/09 03:07:53;;;;;;;;;;;16.20;89.70;;;;;;5113521;28;19947;-90
2022/10/09 03:10:20;;;;;;;;;;;16.20;89.80;;;;;;5116364;28;20009;-89
2022/10/09 03:12:45;;;;;;;;;;;16.10;89.70;;;;;;5116301;28;19937;-89
2022/10/09 03:15:11;;;;;;;;;;;16.00;89.50;;;;;;5116237;28;20033;-90
2022/10/09 03:17:37;;;;;;;;;;;15.90;89.20;;;;;;5082726;28;20038;-90
2022/10/09 03:20:03;;;;;;;;;;;15.80;88.90;;;;;;5095696;28;20413;-89
2022/10/09 03:22:28;;;;;;;;;;;15.60;88.50;;;;;;5095942;28;19987;-89
2022/10/09 03:24:54;;;;;;;;;;;15.50;89.20;;;;;;5077863;28;20406;-91
2022/10/09 03:27:19;;;;;;;;;;;15.50;89.60;;;;;;5095625;28;20315;-90
2022/10/09 03:29:45;;;;;;;;;;;15.40;90.20;;;;;;5097679;28;20315;-90
2022/10/09 03:32:11;;;;;;;;;;;15.50;91.30;;;;;;5095533;28;20286;-90
2022/10/09 03:34:36;;;;;;;;;;;15.50;91.50;;;;;;5095478;28;20419;-90
2022/10/09 03:37:02;;;;;;;;;;;15.60;91.30;;;;;;5095455;28;19940;-90
2022/10/09 03:39:27;;;;;;;;;;;15.60;91.20;;;;;;5081684;28;19975;-88
2022/10/09 03:41:53;;;;;;;;;;;15.60;91.40;;;;;;5080072;28;20127;-89
2022/10/09 03:44:18;;;;;;;;;;;15.60;91.40;;;;;;5073379;28;19942;-88
2022/10/09 03:46:44;;;;;;;;;;;15.40;91.40;;;;;;5075071;28;19936;-89
2022/10/09 03:49:09;;;;;;;;;;;15.40;91.40;;;;;;5074988;28;19945;-90
2022/10/09 03:51:35;;;;;;;;;;;15.40;91.60;;;;;;5074794;28;19956;-89
2022/10/09 03:54:00;;;;;;;;;;;15.50;91.70;;;;;;5074984;28;19992;-89
2022/10/09 03:56:26;;;;;;;;;;;15.60;91.90;;;;;;5075150;28;19985;-91
2022/10/09 03:58:52;;;;;;;;;;;15.60;91.80;;;;;;5074661;28;19963;-89
2022/10/09 04:01:17;;;;;;;;;;;15.50;91.70;;;;;;5082987;28;19953;-89
2022/10/09 04:03:43;;;;;;;;;;;15.60;91.60;;;;;;5094897;28;19943;-90
2022/10/09 04:06:08;;;;;;;;;;;15.50;91.50;;;;;;5094826;28;19992;-89
2022/10/09 04:08:34;;;;;;;;;;;15.50;91.50;;;;;;5094755;28;19937;-89
2022/10/09 04:11:00;;;;;;;;;;;15.50;91.40;;;;;;5094781;28;19942;-89
2022/10/09 04:13:26;;;;;;;;;;;15.40;91.40;;;;;;5082684;28;20449;-89
2022/10/09 04:15:52;;;;;;;;;;;15.40;91.50;;;;;;5074493;28;19937;-90
2022/10/09 04:18:17;;;;;;;;;;;15.40;91.50;;;;;;5073395;28;19979;-89
2022/10/09 04:20:44;;;;;;;;;;;15.40;91.50;;;;;;5074342;28;19944;-89
2022/10/09 04:23:09;;;;;;;;;;;15.40;91.40;;;;;;5073086;28;19945;-89
2022/10/09 04:25:35;;;;;;;;;;;15.40;91.30;;;;;;5086803;28;20027;-90
2022/10/09 04:28:00;;;;;;;;;;;15.50;91.20;;;;;;5094414;28;19944;-89
2022/10/09 04:30:26;;;;;;;;;;;15.50;91.20;;;;;;5094421;28;20396;-89
2022/10/09 04:32:51;;;;;;;;;;;15.50;91.10;;;;;;5094342;28;20460;-89
2022/10/09 04:35:17;;;;;;;;;;;15.50;91.00;;;;;;5094305;28;20430;-89
2022/10/09 04:37:42;;;;;;;;;;;15.50;91.10;;;;;;5092261;28;20372;-89
2022/10/09 04:40:08;;;;;;;;;;;15.40;91.10;;;;;;5114316;28;20432;-88
2022/10/09 04:42:33;;;;;;;;;;;15.30;91.20;;;;;;5096204;28;19943;-89
2022/10/09 04:44:59;;;;;;;;;;;15.30;91.10;;;;;;5099795;28;19945;-89
2022/10/09 04:47:24;;;;;;;;;;;15.30;90.90;;;;;;5094022;28;19983;-89
2022/10/09 04:49:50;;;;;;;;;;;15.30;90.30;;;;;;5093968;28;20040;-89
2022/10/09 04:52:16;;;;;;;;;;;15.20;89.60;;;;;;5093814;28;20105;-89
2022/10/09 04:54:41;;;;;;;;;;;15.20;89.50;;;;;;5102484;28;20305;-89
2022/10/09 04:57:07;;;;;;;;;;;15.10;89.50;;;;;;5114271;28;20413;-89
2022/10/09 04:59:32;;;;;;;;;;;15.10;89.70;;;;;;5112038;28;20419;-90
2022/10/09 05:01:58;;;;;;;;;;;15.10;89.70;;;;;;5114206;28;19941;-89
2022/10/09 05:04:23;;;;;;;;;;;15.00;89.50;;;;;;5114138;28;19947;-89
2022/10/09 05:06:49;;;;;;;;;;;14.90;89.70;;;;;;5114087;28;19943;-90
2022/10/09 05:09:15;;;;;;;;;;;14.90;90.10;;;;;;5094935;28;19948;-90
2022/10/09 05:11:40;;;;;;;;;;;14.90;91.10;;;;;;5113601;28;19993;-90
2022/10/09 05:14:06;;;;;;;;;;;14.90;91.40;;;;;;5114124;28;19988;-89
2022/10/09 05:16:31;;;;;;;;;;;14.90;91.40;;;;;;5095667;28;19993;-88
2022/10/09 05:18:58;;;;;;;;;;;15.00;91.20;;;;;;5113814;28;19967;-90
2022/10/09 05:21:24;;;;;;;;;;;15.00;91.00;;;;;;5112012;28;19942;-90
2022/10/09 05:23:49;;;;;;;;;;;14.90;90.80;;;;;;5113766;28;19988;-90
2022/10/09 05:26:16;;;;;;;;;;;14.80;91.50;;;;;;5113748;28;19989;-89
2022/10/09 05:28:43;;;;;;;;;;;14.80;91.90;;;;;;5113755;28;19974;-89
2022/10/09 05:31:11;;;;;;;;;;;14.90;92.20;;;;;;5113365;28;19944;-89
2022/10/09 05:33:36;;;;;;;;;;;15.00;93.00;;;;;;5093967;28;19942;-89
2022/10/09 05:36:03;;;;;;;;;;;15.10;92.90;;;;;;5113932;28;19948;-90
2022/10/09 05:38:29;;;;;;;;;;;15.20;92.60;;;;;;5106797;22;20356;-90
2022/10/09 05:40:59;;;;;;;;;;;15.30;92.40;;;;;;5074969;28;20399;-89
2022/10/09 05:43:25;;;;;;;;;;;15.30;92.20;;;;;;5093247;28;20296;-90
2022/10/09 05:45:51;;;;;;;;;;;15.40;92.10;;;;;;5093195;28;20008;-88
2022/10/09 05:48:17;;;;;;;;;;;15.50;92.00;;;;;;5091843;28;20428;-89
2022/10/09 05:50:42;;;;;;;;;;;15.60;92.00;;;;;;5088084;28;20029;-90
2022/10/09 05:53:08;;;;;;;;;;;15.60;91.90;;;;;;5093178;28;20026;-88
2022/10/09 05:55:33;;;;;;;;;;;15.70;91.70;;;;;;5093188;28;19974;-89
2022/10/09 05:57:59;;;;;;;;;;;15.60;91.60;;;;;;5093079;28;19942;-89
2022/10/09 06:00:24;;;;;;;;;;;15.70;91.40;;;;;;5091956;28;19961;-89
2022/10/09 06:02:50;;;;;;;;;;;15.70;91.20;;;;;;5092437;28;19998;-90
2022/10/09 06:05:15;;;;;;;;;;;15.70;91.30;;;;;;5092399;28;19944;-90
2022/10/09 06:07:41;;;;;;;;;;;15.80;91.30;;;;;;5093009;28;19949;-88
2022/10/09 06:10:07;;;;;;;;;;;15.70;91.20;;;;;;5092980;28;19940;-89
2022/10/09 06:12:32;;;;;;;;;;;15.70;91.10;;;;;;5091580;28;20001;-89
2022/10/09 06:14:58;;;;;;;;;;;15.60;91.30;;;;;;5092927;28;20006;-89
2022/10/09 06:17:23;;;;;;;;;;;15.60;91.50;;;;;;5092930;28;19944;-89
2022/10/09 06:19:49;;;;;;;;;;;15.60;91.80;;;;;;5092812;28;19959;-89
2022/10/09 06:22:14;;;;;;;;;;;15.70;92.10;;;;;;5091430;28;19993;-90
2022/10/09 06:24:40;;;;;;;;;;;15.80;92.20;;;;;;5089791;28;19943;-90
2022/10/09 06:27:06;;;;;;;;;;;15.80;92.30;;;;;;5092868;28;19945;-89
2022/10/09 06:29:31;;;;;;;;;;;16.00;92.50;;;;;;5092797;28;19955;-89
2022/10/09 06:31:57;;;;;;;;;;;16.20;92.40;;;;;;5092856;28;19977;-89
2022/10/09 06:34:22;;;;;;;;;;;16.30;92.30;;;;;;5092077;28;19940;-89
2022/10/09 06:36:48;;;;;;;;;;;16.50;92.10;;;;;;5074682;28;20000;-89
2022/10/09 06:39:13;;;;;;;;;;;16.70;91.70;;;;;;5092534;28;19968;-89
2022/10/09 06:41:39;;;;;;;;;;;16.80;91.40;;;;;;5093358;28;19985;-89
2022/10/09 06:44:06;;;;;;;;;;;16.90;91.20;;;;;;5096505;28;20385;-89
2022/10/09 06:46:33;;;;;;;;;;;17.00;90.90;;;;;;5095726;28;19949;-89
2022/10/09 06:48:59;;;;;;;;;;;17.10;90.70;;;;;;5096377;28;19943;-90
2022/10/09 06:51:26;;;;;;;;;;;17.30;90.40;;;;;;5078126;28;19954;-89
2022/10/09 06:53:53;;;;;;;;;;;17.40;89.90;;;;;;5096314;28;19935;-89
2022/10/09 06:56:19;;;;;;;;;;;17.60;89.20;;;;;;5076948;28;19943;-90
2022/10/09 06:58:45;;;;;;;;;;;17.70;88.10;;;;;;5095501;28;19963;-89
2022/10/09 07:01:12;;;;;;;;;;;17.80;87.40;;;;;;5096178;28;19950;-90
2022/10/09 07:03:39;;;;;;;;;;;18.00;86.60;;;;;;5096119;28;20031;-90
2022/10/09 07:06:25;;;;;;;;;;;18.20;85.90;;;;;;5095020;28;19941;-90
2022/10/09 07:08:51;;;;;;;;;;;18.30;85.10;;;;;;5075146;28;19993;-89
2022/10/09 07:11:21;;;;;;;;;;;18.50;83.90;;;;;;5075696;28;19939;-89
2022/10/09 07:13:52;;;;;;;;;;;18.70;82.80;;;;;;5075655;28;19936;-89
2022/10/09 07:16:19;;;;;;;;;;;18.80;81.50;;;;;;5066701;28;19951;-89
2022/10/09 07:18:45;;;;;;;;;;;19.00;80.10;;;;;;5095688;28;19949;-89
2022/10/09 07:21:10;;;;;;;;;;;19.20;78.10;;;;;;5095760;28;19945;-89
2022/10/09 07:23:36;;;;;;;;;;;19.40;76.50;;;;;;5079421;28;19986;-89
2022/10/09 07:26:07;;;;;;;;;;;19.60;76.30;;;;;;5082228;28;19944;-89
2022/10/09 07:28:32;;;;;;;;;;;19.80;76.20;;;;;;5076832;28;20297;-89
2022/10/09 07:31:01;;;;;;;;;;;19.90;75.10;;;;;;5095631;28;19949;-89
2022/10/09 07:33:26;;;;;;;;;;;20.10;73.90;;;;;;5095524;28;19938;-89
2022/10/09 07:35:55;;;;;;;;;;;20.30;73.20;;;;;;5095541;28;19945;-89
2022/10/09 07:38:23;;;;;;;;;;;20.40;71.70;;;;;;5094379;28;19983;-89
2022/10/09 07:40:49;;;;;;;;;;;20.50;71.90;;;;;;5095361;28;20053;-89
2022/10/09 07:43:15;;;;;;;;;;;20.60;71.40;;;;;;5095653;28;19987;-89
2022/10/09 07:45:40;;;;;;;;;;;20.70;70.70;;;;;;5092699;28;20457;-89
2022/10/09 07:48:06;;;;;;;;;;;20.70;69.90;;;;;;5080777;28;19991;-89
2022/10/09 07:50:32;;;;;;;;;;;20.70;69.70;;;;;;5095078;28;19941;-90
2022/10/09 07:52:57;;;;;;;;;;;20.70;69.00;;;;;;5094881;28;19936;-91
2022/10/09 07:55:23;;;;;;;;;;;20.70;69.10;;;;;;5095145;28;20387;-89
2022/10/09 07:57:49;;;;;;;;;;;20.60;68.90;;;;;;5091799;28;20300;-89
2022/10/09 08:00:15;;;;;;;;;;;20.60;68.80;;;;;;5094970;28;19977;-90
2022/10/09 08:02:40;;;;;;;;;;;20.60;69.00;;;;;;5094935;28;19938;-89
2022/10/09 08:05:06;;;;;;;;;;;20.60;69.20;;;;;;5094974;28;20027;-89
2022/10/09 08:07:31;;;;;;;;;;;20.60;69.10;;;;;;5094119;28;20082;-89
2022/10/09 08:09:57;;;;;;;;;;;20.50;69.80;;;;;;5094817;28;19943;-90
2022/10/09 08:12:22;;;;;;;;;;;20.50;69.80;;;;;;5094790;28;19985;-90
2022/10/09 08:14:48;;;;;;;;;;;20.50;69.80;;;;;;5094764;28;19984;-90
2022/10/09 08:17:14;;;;;;;;;;;20.50;69.80;;;;;;5094975;28;19939;-89
2022/10/09 08:19:40;;;;;;;;;;;20.50;69.70;;;;;;5093846;28;19961;-89
2022/10/09 08:22:05;;;;;;;;;;;20.50;69.70;;;;;;5094596;28;20324;-89
2022/10/09 08:24:31;;;;;;;;;;;20.40;70.30;;;;;;5094531;28;19941;-90
2022/10/09 08:26:56;;;;;;;;;;;20.50;70.60;;;;;;5094524;28;20337;-89
2022/10/09 08:29:22;;;;;;;;;;;20.50;71.30;;;;;;5094490;28;19940;-89
2022/10/09 08:31:47;;;;;;;;;;;20.60;72.00;;;;;;5093726;28;20105;-89
2022/10/09 08:34:13;;;;;;;;;;;20.80;72.00;;;;;;5094621;28;19945;-89
2022/10/09 08:36:39;;;;;;;;;;;20.90;72.40;;;;;;5094327;28;20407;-89
2022/10/09 08:39:04;;;;;;;;;;;21.00;72.80;;;;;;5094023;28;20033;-89
2022/10/09 08:41:33;;;;;;;;;;;21.20;71.50;;;;;;5093526;28;19997;-89
2022/10/09 08:44:00;;;;;;;;;;;21.30;71.10;;;;;;5094179;28;19955;-89
2022/10/09 08:46:38;;;;;;;;;;;21.40;70.70;;;;;;5094182;28;19946;-90
2022/10/09 08:49:04;;;;;;;;;;;21.50;70.60;;;;;;5094128;28;19939;-89
2022/10/09 08:51:34;;;;;;;;;;;21.70;71.90;;;;;;5093460;28;20744;-89
2022/10/09 08:54:02;;;;;;;;;;;21.80;69.80;;;;;;5075747;28;20311;-90
2022/10/09 08:56:28;;;;;;;;;;;21.80;69.20;;;;;;5093039;28;19951;-89
2022/10/09 08:58:54;;;;;;;;;;;21.80;68.50;;;;;;5093500;28;19964;-89
2022/10/09 09:01:20;;;;;;;;;;;21.90;68.60;;;;;;5094096;28;19943;-89
2022/10/09 09:03:45;;;;;;;;;;;22.00;68.60;;;;;;5093849;28;19934;-89
2022/10/09 09:06:17;;;;;;;;;;;22.30;68.50;;;;;;5093446;28;20395;-90
2022/10/09 09:08:59;;;;;;;;;;;22.40;67.70;;;;;;5092917;28;19956;-89
2022/10/09 09:11:28;;;;;;;;;;;22.60;66.90;;;;;;5093694;28;19941;-89
2022/10/09 09:14:00;;;;;;;;;;;22.80;66.60;;;;;;5093610;28;19945;-90
2022/10/09 09:16:37;;;;;;;;;;;22.90;64.90;;;;;;5074319;28;19953;-89
2022/10/09 09:19:06;;;;;;;;;;;22.90;64.60;;;;;;5093437;28;19955;-89
2022/10/09 09:21:31;;;;;;;;;;;23.00;64.40;;;;;;5093536;28;19995;-88
2022/10/09 09:23:57;;;;;;;;;;;23.00;63.30;;;;;;5075390;28;20457;-90
2022/10/09 09:26:23;;;;;;;;;;;23.00;63.00;;;;;;5092315;28;20147;-90
2022/10/09 09:28:51;;;;;;;;;;;23.00;62.80;;;;;;5092833;28;19949;-89
2022/10/09 09:31:22;;;;;;;;;;;23.00;62.50;;;;;;5093405;28;20384;-89
2022/10/09 09:33:48;;;;;;;;;;;22.90;62.70;;;;;;5093649;28;19945;-89
2022/10/09 09:36:16;;;;;;;;;;;22.90;63.00;;;;;;5093369;28;19938;-89
2022/10/09 09:38:42;;;;;;;;;;;22.90;63.20;;;;;;5092653;28;20381;-89
2022/10/09 09:41:07;;;;;;;;;;;23.00;62.50;;;;;;5093360;28;19943;-89
2022/10/09 09:43:33;;;;;;;;;;;23.10;60.80;;;;;;5093309;28;20303;-90
2022/10/09 09:45:59;;;;;;;;;;;23.20;60.50;;;;;;5093296;28;20028;-89
2022/10/09 09:48:35;;;;;;;;;;;23.20;59.60;;;;;;5093179;28;19947;-88
2022/10/09 09:51:01;;;;;;;;;;;23.20;59.00;;;;;;5092218;28;19966;-90
2022/10/09 09:53:35;;;;;;;;;;;23.30;59.30;;;;;;5093214;28;20377;-89
2022/10/09 09:56:01;;;;;;;;;;;23.40;61.00;;;;;;5093158;28;19948;-90
2022/10/09 09:58:35;;;;;;;;;;;23.60;59.60;;;;;;5093022;28;19948;-90
2022/10/09 10:01:02;;;;;;;;;;;23.70;58.40;;;;;;5093083;28;20039;-89
2022/10/09 10:03:28;;;;;;;;;;;23.70;57.20;;;;;;5092545;28;19942;-89
2022/10/09 10:05:53;;;;;;;;;;;23.80;57.50;;;;;;5092956;28;19941;-89
2022/10/09 10:08:22;;;;;;;;;;;23.80;55.40;;;;;;5093021;28;19939;-90
2022/10/09 10:10:48;;;;;;;;;;;23.80;55.70;;;;;;5092966;28;19987;-89
2022/10/09 10:13:15;;;;;;;;;;;23.90;55.70;;;;;;5074921;28;19945;-89
2022/10/09 10:15:46;;;;;;;;;;;24.20;55.50;;;;;;5091947;28;19951;-90
2022/10/09 10:18:14;;;;;;;;;;;24.30;54.10;;;;;;5096971;28;20060;-90
2022/10/09 10:20:41;;;;;;;;;;;24.50;55.40;;;;;;5096843;28;20024;-89
2022/10/09 10:23:26;;;;;;;;;;;24.70;54.20;;;;;;5096866;28;19963;-90
2022/10/09 10:25:53;;;;;;;;;;;24.80;55.30;;;;;;5095759;28;20419;-89
2022/10/09 10:28:23;;;;;;;;;;;25.00;54.00;;;;;;5096760;28;19950;-90
2022/10/09 10:30:49;;;;;;;;;;;25.20;51.40;;;;;;5096707;28;19941;-89
2022/10/09 10:33:35;;;;;;;;;;;25.30;50.90;;;;;;5095289;28;19984;-90
2022/10/09 10:36:00;;;;;;;;;;;25.30;51.10;;;;;;5096602;28;19942;-89
2022/10/09 10:38:29;;;;;;;;;;;25.40;50.20;;;;;;5096459;28;19978;-90
2022/10/09 10:41:00;;;;;;;;;;;25.50;49.70;;;;;;5096489;28;20010;-90
2022/10/09 10:43:28;;;;;;;;;;;25.60;49.40;;;;;;5095121;28;19962;-89
2022/10/09 10:46:09;;;;;;;;;;;25.80;48.90;;;;;;5096416;28;20020;-90
2022/10/09 10:48:41;;;;;;;;;;;25.90;48.60;;;;;;5096415;28;20032;-89
2022/10/09 10:51:07;;;;;;;;;;;26.00;48.10;;;;;;5096357;28;20298;-89
2022/10/09 10:53:51;;;;;;;;;;;26.00;47.60;;;;;;5095669;28;19950;-89
2022/10/09 10:56:19;;;;;;;;;;;26.00;47.30;;;;;;5078003;28;19945;-89
2022/10/09 10:59:05;;;;;;;;;;;26.00;47.50;;;;;;5096185;28;19985;-89
2022/10/09 11:01:39;;;;;;;;;;;26.00;49.00;;;;;;5044391;28;20310;-90
2022/10/09 11:04:25;;;;;;;;;;;26.30;46.60;;;;;;5096196;28;19947;-89
2022/10/09 11:06:59;;;;;;;;;;;26.60;46.80;;;;;;5077440;28;19954;-90
2022/10/09 11:09:31;;;;;;;;;;;26.60;46.60;;;;;;5095992;28;20296;-89
2022/10/09 11:12:05;;;;;;;;;;;26.70;47.00;;;;;;5096013;28;19949;-90
2022/10/09 11:14:31;;;;;;;;;;;26.80;47.30;;;;;;5095883;28;20350;-89
2022/10/09 11:17:02;;;;;;;;;;;27.10;47.60;;;;;;5094619;28;19953;-90
2022/10/09 11:19:31;;;;;;;;;;;27.20;46.80;;;;;;5077545;28;20345;-89
2022/10/09 11:22:12;;;;;;;;;;;27.40;46.90;;;;;;5077662;28;20081;-89
2022/10/09 11:24:51;;;;;;;;;;;27.50;43.40;;;;;;5095784;28;20104;-89
2022/10/09 11:27:23;;;;;;;;;;;27.50;43.30;;;;;;5093509;28;19947;-89
2022/10/09 11:30:03;;;;;;;;;;;27.40;43.20;;;;;;5095887;28;19945;-89
2022/10/09 11:32:58;;;;;;;;;;;27.20;43.80;;;;;;5095550;28;20070;-89
2022/10/09 11:35:25;;;;;;;;;;;27.00;44.70;;;;;;5073491;28;20033;-90
2022/10/09 11:38:01;;;;;;;;;;;26.90;44.80;;;;;;5094729;28;20440;-90
2022/10/09 11:40:32;;;;;;;;;;;26.90;44.60;;;;;;5095368;28;20017;-90
2022/10/09 11:43:29;;;;;;;;;;;26.90;44.80;;;;;;5095411;28;19940;-89
2022/10/09 11:45:58;;;;;;;;;;;26.80;44.90;;;;;;5039807;28;19950;-89
2022/10/09 11:48:34;;;;;;;;;;;26.40;46.40;;;;;;5095354;28;19936;-89
2022/10/09 11:51:18;;;;;;;;;;;26.00;48.20;;;;;;5094356;28;19960;-89
2022/10/09 11:53:44;;;;;;;;;;;25.70;49.30;;;;;;5095149;28;19951;-89
2022/10/09 11:56:26;;;;;;;;;;;25.50;50.40;;;;;;5095169;28;20452;-90
2022/10/09 11:58:58;;;;;;;;;;;25.60;49.20;;;;;;5095044;28;19941;-91
2022/10/09 12:01:27;;;;;;;;;;;25.60;50.30;;;;;;5076021;28;20324;-90
2022/10/09 12:04:19;;;;;;;;;;;25.70;49.10;;;;;;5094992;28;19947;-89
2022/10/09 12:07:06;;;;;;;;;;;25.90;48.80;;;;;;5055941;28;19984;-89
2022/10/09 12:09:43;;;;;;;;;;;26.70;48.00;;;;;;5076707;28;19941;-90
2022/10/09 12:12:14;;;;;;;;;;;27.80;46.50;;;;;;5094093;28;19953;-90
2022/10/09 12:14:40;;;;;;;;;;;29.00;42.30;;;;;;5094820;28;19992;-90
2022/10/09 12:17:17;;;;;;;;;;;30.20;38.90;;;;;;5094733;28;20401;-90
2022/10/09 12:19:43;;;;;;;;;;;30.40;40.00;;;;;;5094594;28;19961;-90
2022/10/09 12:22:13;;;;;;;;;;;31.10;37.80;;;;;;5094670;28;19945;-90
2022/10/09 12:24:41;;;;;;;;;;;31.30;36.40;;;;;;5093889;28;19978;-90
2022/10/09 12:27:07;;;;;;;;;;;31.70;35.20;;;;;;5094064;28;20060;-90
2022/10/09 12:29:42;;;;;;;;;;;32.20;35.00;;;;;;5094490;28;19988;-90
2022/10/09 12:32:13;;;;;;;;;;;32.70;33.80;;;;;;5094520;28;19936;-90
2022/10/09 12:34:46;;;;;;;;;;;33.50;32.50;;;;;;5093254;28;19945;-89
2022/10/09 12:37:16;;;;;;;;;;;33.90;31.70;;;;;;5094358;28;19994;-90
2022/10/09 12:39:42;;;;;;;;;;;34.20;31.50;;;;;;5093189;28;20484;-90
2022/10/09 12:42:13;;;;;;;;;;;34.00;33.00;;;;;;5094291;28;20080;-90
2022/10/09 12:44:39;;;;;;;;;;;33.50;32.60;;;;;;5093551;28;20089;-89
2022/10/09 12:47:05;;;;;;;;;;;32.30;34.10;;;;;;5093519;28;20537;-90
2022/10/09 12:49:31;;;;;;;;;;;31.60;34.30;;;;;;5094112;28;20033;-90
2022/10/09 12:51:58;;;;;;;;;;;30.90;35.70;;;;;;5093896;28;20011;-90
2022/10/09 12:54:24;;;;;;;;;;;30.30;36.60;;;;;;5094066;28;19947;-90
2022/10/09 12:56:55;;;;;;;;;;;29.80;37.90;;;;;;5093369;28;19948;-89
2022/10/09 12:59:21;;;;;;;;;;;30.30;37.50;;;;;;5093873;28;19966;-89
2022/10/09 13:01:48;;;;;;;;;;;31.10;36.20;;;;;;5093932;28;19949;-90
2022/10/09 13:04:23;;;;;;;;;;;32.20;33.90;;;;;;5093906;28;19952;-90
2022/10/09 13:06:49;;;;;;;;;;;32.40;34.50;;;;;;5093152;28;19955;-90
2022/10/09 13:09:26;;;;;;;;;;;32.80;33.40;;;;;;5093810;28;19995;-90
2022/10/09 13:11:53;;;;;;;;;;;33.00;33.30;;;;;;5075527;28;19964;-91
2022/10/09 13:14:38;;;;;;;;;;;32.70;33.90;;;;;;5093876;28;19948;-90
2022/10/09 13:17:03;;;;;;;;;;;33.00;34.50;;;;;;5093649;28;19941;-90
2022/10/09 13:19:30;;;;;;;;;;;33.20;33.50;;;;;;5091869;28;19959;-89
2022/10/09 13:22:00;;;;;;;;;;;33.30;32.90;;;;;;5093605;28;19946;-90
2022/10/09 13:24:25;;;;;;;;;;;33.30;32.40;;;;;;5093540;28;19943;-89
2022/10/09 13:26:51;;;;;;;;;;;33.40;32.10;;;;;;5093503;28;19937;-89
2022/10/09 13:29:16;;;;;;;;;;;33.30;32.10;;;;;;5093522;28;19946;-90
2022/10/09 13:31:42;;;;;;;;;;;33.40;31.60;;;;;;5092673;28;19965;-90
2022/10/09 13:34:11;;;;;;;;;;;33.60;31.90;;;;;;5093362;28;20024;-90
2022/10/09 13:36:37;;;;;;;;;;;34.20;31.50;;;;;;5093442;28;19943;-90
2022/10/09 13:39:03;;;;;;;;;;;34.70;30.20;;;;;;5087462;22;19980;-91
2022/10/09 13:41:28;;;;;;;;;;;35.20;29.30;;;;;;5073396;28;19949;-90
2022/10/09 13:43:54;;;;;;;;;;;36.20;28.30;;;;;;5072688;28;19959;-90
2022/10/09 13:46:19;;;;;;;;;;;36.90;26.70;;;;;;5073079;28;20412;-91
2022/10/09 13:48:45;;;;;;;;;;;36.60;28.10;;;;;;5073045;28;20096;-90
2022/10/09 13:51:11;;;;;;;;;;;35.50;28.60;;;;;;5072595;28;19962;-91
2022/10/09 13:53:36;;;;;;;;;;;35.10;30.00;;;;;;5073290;28;20364;-91
2022/10/09 13:56:02;;;;;;;;;;;34.70;29.70;;;;;;5071656;28;19954;-90
2022/10/09 13:58:28;;;;;;;;;;;34.40;30.10;;;;;;5072999;28;19938;-90
2022/10/09 14:00:53;;;;;;;;;;;34.00;31.90;;;;;;5072855;28;19966;-90
2022/10/09 14:03:19;;;;;;;;;;;33.90;31.90;;;;;;5071257;28;19973;-90
2022/10/09 14:05:44;;;;;;;;;;;33.20;32.60;;;;;;5070494;28;19947;-91
2022/10/09 14:08:10;;;;;;;;;;;32.80;32.80;;;;;;5072930;28;20321;-90
2022/10/09 14:10:40;;;;;;;;;;;32.40;32.40;;;;;;5072085;28;19947;-90
2022/10/09 14:13:06;;;;;;;;;;;31.90;33.30;;;;;;5072499;28;19949;-89
2022/10/09 14:15:32;;;;;;;;;;;31.10;35.60;;;;;;5071549;28;19947;-90
2022/10/09 14:17:57;;;;;;;;;;;30.50;36.40;;;;;;5073063;28;20051;-89
2022/10/09 14:20:24;;;;;;;;;;;30.20;36.30;;;;;;5071957;28;20309;-90
2022/10/09 14:22:49;;;;;;;;;;;29.70;37.10;;;;;;5071521;28;20014;-90